Time;durP1;ratioP1;P1;durP2;ratioP2;P2;SDS_P1;SDS_P2;PMS_P1;PMS_P2;Temp;Humidity;BMP_temperature;BMP_pressure;BME280_temperature;BME280_humidity;BME280_pressure;Samples;Min_cycle;Max_cycle;Signal;HPM_P1;HPM_P2
2021/01/09 00:01:17;;;;;;;9.45;6.85;;;19.60;47.00;;;;;;5041252;28;20025;-56
2021/01/09 00:03:42;;;;;;;9.05;6.00;;;19.60;47.00;;;;;;5040199;28;20387;-57
2021/01/09 00:06:08;;;;;;;9.27;5.80;;;19.70;47.00;;;;;;5041030;28;20107;-51
2021/01/09 00:08:34;;;;;;;9.27;6.00;;;19.70;46.90;;;;;;5041347;28;20029;-54
2021/01/09 00:10:59;;;;;;;8.88;6.20;;;19.70;47.00;;;;;;5041525;28;20502;-56
2021/01/09 00:13:24;;;;;;;7.85;6.05;;;19.70;46.90;;;;;;5039475;28;22273;-58
2021/01/09 00:15:50;;;;;;;6.93;5.30;;;19.70;47.00;;;;;;5040514;28;20048;-55
2021/01/09 00:18:16;;;;;;;9.35;5.50;;;19.70;46.90;;;;;;5041264;28;20040;-53
2021/01/09 00:20:41;;;;;;;7.10;4.88;;;19.80;47.00;;;;;;5040767;28;20021;-55
2021/01/09 00:23:07;;;;;;;8.73;5.45;;;19.80;46.90;;;;;;5023937;28;20124;-56
2021/01/09 00:25:32;;;;;;;8.32;4.82;;;19.80;46.90;;;;;;5040381;28;20136;-54
2021/01/09 00:27:58;;;;;;;7.00;4.93;;;19.80;46.90;;;;;;5039752;28;20635;-54
2021/01/09 00:30:23;;;;;;;6.85;4.43;;;19.80;46.90;;;;;;5040557;28;20493;-56
2021/01/09 00:32:49;;;;;;;6.00;4.10;;;19.80;46.90;;;;;;5040472;28;20037;-51
2021/01/09 00:35:15;;;;;;;5.95;3.88;;;19.80;46.90;;;;;;5040690;28;20057;-56
2021/01/09 00:37:40;;;;;;;6.70;4.63;;;19.80;46.90;;;;;;5040120;28;20025;-56
2021/01/09 00:40:06;;;;;;;6.15;4.32;;;19.80;47.00;;;;;;5042267;28;20033;-53
2021/01/09 00:42:36;;;;;;;6.53;4.57;;;19.70;46.90;;;;;;5047749;28;20029;-53
2021/01/09 00:45:02;;;;;;;7.82;4.13;;;19.80;47.00;;;;;;5008835;23;20051;-60
2021/01/09 00:47:29;;;;;;;4.63;3.65;;;19.70;46.90;;;;;;4972024;28;20039;-60
2021/01/09 00:49:54;;;;;;;5.88;3.67;;;19.70;47.00;;;;;;4980146;28;20042;-60
2021/01/09 00:52:20;;;;;;;5.18;3.45;;;19.80;47.00;;;;;;4973375;28;20038;-59
2021/01/09 00:54:45;;;;;;;4.90;3.50;;;19.70;46.90;;;;;;4977948;28;20034;-60
2021/01/09 00:57:11;;;;;;;4.72;3.60;;;19.70;46.90;;;;;;4966080;28;20046;-58
2021/01/09 00:59:36;;;;;;;5.40;3.63;;;19.70;47.00;;;;;;4956276;28;20112;-60
2021/01/09 01:02:02;;;;;;;6.32;4.03;;;19.70;47.10;;;;;;4949899;28;20053;-60
2021/01/09 01:04:27;;;;;;;5.13;3.20;;;19.70;47.00;;;;;;4961226;28;20050;-60
2021/01/09 01:06:53;;;;;;;7.53;3.17;;;19.70;47.10;;;;;;4960227;28;20049;-60
2021/01/09 01:09:19;;;;;;;4.47;3.35;;;19.70;47.00;;;;;;4943757;28;20045;-60
2021/01/09 01:11:44;;;;;;;4.38;2.92;;;19.70;47.10;;;;;;4977181;28;20030;-60
2021/01/09 01:14:10;;;;;;;5.80;3.47;;;19.70;47.10;;;;;;4979670;28;20067;-60
2021/01/09 01:16:36;;;;;;;5.10;2.85;;;19.70;47.10;;;;;;4962331;28;20088;-59
2021/01/09 01:19:01;;;;;;;3.75;2.97;;;19.70;47.10;;;;;;4965674;28;20090;-60
2021/01/09 01:21:26;;;;;;;4.95;3.15;;;19.70;47.10;;;;;;4960554;28;20496;-59
2021/01/09 01:23:52;;;;;;;4.30;3.00;;;19.70;47.10;;;;;;4971255;28;20046;-59
2021/01/09 01:26:18;;;;;;;4.53;2.55;;;19.70;47.10;;;;;;4966334;28;20210;-59
2021/01/09 01:28:43;;;;;;;3.20;2.60;;;19.60;47.10;;;;;;4951238;28;20045;-60
2021/01/09 01:31:09;;;;;;;4.68;2.97;;;19.60;47.10;;;;;;4968907;28;20181;-59
2021/01/09 01:33:37;;;;;;;3.60;2.75;;;19.60;47.10;;;;;;4961645;28;20736;-59
2021/01/09 01:36:03;;;;;;;3.13;2.20;;;19.70;47.10;;;;;;4958977;28;20023;-59
2021/01/09 01:38:28;;;;;;;2.92;2.30;;;19.60;47.10;;;;;;4978586;28;20031;-60
2021/01/09 01:41:04;;;;;;;3.75;2.50;;;19.60;47.10;;;;;;4982694;28;20066;-59
2021/01/09 01:43:29;;;;;;;3.72;2.65;;;19.60;47.20;;;;;;4984486;28;20101;-59
2021/01/09 01:45:55;;;;;;;3.88;2.97;;;19.60;47.10;;;;;;4984037;28;20038;-59
2021/01/09 01:48:20;;;;;;;4.15;2.58;;;19.60;47.10;;;;;;4967771;28;20027;-59
2021/01/09 01:50:46;;;;;;;3.75;2.55;;;19.60;47.20;;;;;;4975387;28;20054;-59
2021/01/09 01:53:11;;;;;;;3.30;2.65;;;19.60;47.20;;;;;;4962027;28;20069;-60
2021/01/09 01:55:36;;;;;;;4.32;2.40;;;19.60;47.10;;;;;;4966587;28;20126;-60
2021/01/09 01:58:02;;;;;;;2.53;2.20;;;19.60;47.10;;;;;;4966277;28;20229;-60
2021/01/09 02:00:27;;;;;;;3.63;2.45;;;19.60;47.10;;;;;;4987243;28;20042;-60
2021/01/09 02:02:54;;;;;;;6.00;2.30;;;19.60;47.10;;;;;;4973198;28;20031;-60
2021/01/09 02:05:23;;;;;;;2.50;2.20;;;19.50;47.10;;;;;;4964926;28;20039;-59
2021/01/09 02:07:49;;;;;;;2.13;1.92;;;19.50;47.10;;;;;;4967092;28;20507;-59
2021/01/09 02:10:14;;;;;;;2.60;2.00;;;19.50;47.10;;;;;;4942965;28;20062;-60
2021/01/09 02:12:43;;;;;;;2.83;2.00;;;19.50;47.10;;;;;;4952096;28;20496;-59
2021/01/09 02:15:09;;;;;;;3.85;2.20;;;19.50;47.20;;;;;;4930169;28;20378;-58
2021/01/09 02:17:36;;;;;;;5.43;2.60;;;19.50;47.10;;;;;;4920973;28;20062;-59
2021/01/09 02:20:02;;;;;;;2.83;1.77;;;19.40;47.10;;;;;;4947617;28;20393;-59
2021/01/09 02:22:30;;;;;;;2.15;1.92;;;19.30;47.00;;;;;;4948447;28;20051;-59
2021/01/09 02:24:56;;;;;;;2.85;1.88;;;19.40;47.10;;;;;;4947821;28;20057;-59
2021/01/09 02:27:21;;;;;;;2.00;1.80;;;19.30;47.00;;;;;;4965261;28;20548;-60
2021/01/09 02:30:00;;;;;;;2.15;1.60;;;19.30;47.00;;;;;;4972293;28;20045;-60
2021/01/09 02:32:28;;;;;;;2.65;1.80;;;19.20;46.90;;;;;;4967471;28;20041;-60
2021/01/09 02:34:55;;;;;;;2.85;2.17;;;19.20;46.80;;;;;;4983688;28;20088;-60
2021/01/09 02:37:20;;;;;;;2.70;2.00;;;19.20;46.80;;;;;;4977492;28;20050;-60
2021/01/09 02:39:46;;;;;;;3.08;2.00;;;19.20;46.70;;;;;;4947138;28;20031;-59
2021/01/09 02:42:11;;;;;;;3.03;2.30;;;19.20;46.70;;;;;;4948485;28;20034;-60
2021/01/09 02:44:37;;;;;;;2.33;1.88;;;19.20;46.70;;;;;;4947350;28;20041;-59
2021/01/09 02:47:04;;;;;;;1.92;1.45;;;19.20;46.60;;;;;;4946881;28;20874;-60
2021/01/09 02:49:29;;;;;;;2.17;1.92;;;19.20;46.60;;;;;;4971590;28;20049;-59
2021/01/09 02:51:55;;;;;;;1.70;1.60;;;19.20;46.60;;;;;;4983189;28;20575;-60
2021/01/09 02:54:20;;;;;;;1.77;1.58;;;19.20;46.50;;;;;;4983753;28;20150;-60
2021/01/09 02:56:46;;;;;;;3.22;2.05;;;19.20;46.50;;;;;;4976396;28;20035;-59
2021/01/09 02:59:11;;;;;;;1.60;1.50;;;19.20;46.50;;;;;;4965423;28;20035;-60
2021/01/09 03:01:37;;;;;;;2.13;1.70;;;19.20;46.40;;;;;;4964046;28;20085;-60
2021/01/09 03:04:02;;;;;;;2.03;1.70;;;19.20;46.40;;;;;;4963328;28;20563;-60
2021/01/09 03:06:28;;;;;;;2.55;2.13;;;19.10;46.40;;;;;;4972988;28;20045;-60
2021/01/09 03:08:53;;;;;;;2.25;1.70;;;19.10;46.40;;;;;;4983069;28;20041;-59
2021/01/09 03:11:19;;;;;;;1.98;1.42;;;19.10;46.40;;;;;;4984085;28;20559;-60
2021/01/09 03:13:45;;;;;;;2.30;1.50;;;19.10;46.30;;;;;;4966366;28;20026;-60
2021/01/09 03:16:10;;;;;;;2.08;1.60;;;19.10;46.30;;;;;;4983111;28;20056;-60
2021/01/09 03:18:36;;;;;;;2.58;1.83;;;19.10;46.30;;;;;;4961124;28;20052;-59
2021/01/09 03:21:01;;;;;;;2.08;1.88;;;19.10;46.30;;;;;;4944886;28;20167;-57
2021/01/09 03:23:27;;;;;;;2.05;1.70;;;19.10;46.30;;;;;;4943820;28;20034;-59
2021/01/09 03:25:52;;;;;;;2.00;1.45;;;19.00;46.20;;;;;;4971935;28;20046;-59
2021/01/09 03:28:18;;;;;;;2.03;1.60;;;19.10;46.30;;;;;;4980128;28;20082;-60
2021/01/09 03:30:43;;;;;;;1.48;1.38;;;19.10;46.30;;;;;;4980046;28;20026;-60
2021/01/09 03:33:09;;;;;;;3.15;1.50;;;19.00;46.20;;;;;;4982091;28;20034;-60
2021/01/09 03:35:34;;;;;;;1.85;1.40;;;19.10;46.30;;;;;;4965541;28;20081;-60
2021/01/09 03:38:00;;;;;;;1.92;1.70;;;19.00;46.20;;;;;;4965030;28;20049;-59
2021/01/09 03:40:25;;;;;;;1.65;1.55;;;19.00;46.30;;;;;;4983180;28;20041;-60
2021/01/09 03:42:51;;;;;;;2.13;1.60;;;19.00;46.20;;;;;;4982195;28;20034;-59
2021/01/09 03:45:16;;;;;;;2.25;1.60;;;19.00;46.20;;;;;;4982943;28;20557;-60
2021/01/09 03:47:42;;;;;;;2.08;1.52;;;19.00;46.20;;;;;;4982232;28;20037;-59
2021/01/09 03:50:08;;;;;;;2.10;1.60;;;19.00;46.20;;;;;;4982447;28;20039;-60
2021/01/09 03:52:33;;;;;;;2.75;1.83;;;19.00;46.20;;;;;;4982469;28;20550;-60
2021/01/09 03:54:59;;;;;;;2.10;1.48;;;19.00;46.20;;;;;;4983160;28;20042;-59
2021/01/09 03:57:24;;;;;;;2.50;1.83;;;19.00;46.20;;;;;;4982645;28;20252;-60
2021/01/09 03:59:50;;;;;;;2.15;1.42;;;19.00;46.20;;;;;;4982208;28;20518;-60
2021/01/09 04:02:15;;;;;;;1.98;1.75;;;19.00;46.20;;;;;;4976231;28;20039;-59
2021/01/09 04:04:41;;;;;;;1.88;1.63;;;19.00;46.20;;;;;;4963125;28;20075;-60
2021/01/09 04:07:06;;;;;;;1.40;1.30;;;19.00;46.10;;;;;;4962450;28;20062;-60
2021/01/09 04:09:32;;;;;;;2.53;1.50;;;19.00;46.10;;;;;;4963002;28;20042;-60
2021/01/09 04:11:57;;;;;;;1.40;1.30;;;19.00;46.10;;;;;;4962592;28;20039;-60
2021/01/09 04:14:23;;;;;;;1.63;1.48;;;19.00;46.10;;;;;;4962590;28;20069;-59
2021/01/09 04:16:48;;;;;;;1.75;1.33;;;19.00;46.10;;;;;;4963314;28;20555;-60
2021/01/09 04:19:14;;;;;;;1.98;1.60;;;19.00;46.20;;;;;;4970119;28;20034;-59
2021/01/09 04:21:46;;;;;;;2.03;1.73;;;19.00;46.10;;;;;;4981650;28;20058;-59
2021/01/09 04:24:12;;;;;;;2.08;1.42;;;19.00;46.20;;;;;;4950515;28;20046;-60
2021/01/09 04:26:37;;;;;;;1.40;1.20;;;18.90;46.10;;;;;;4962410;28;20066;-60
2021/01/09 04:29:03;;;;;;;1.88;1.60;;;18.90;46.10;;;;;;4962178;28;20034;-59
2021/01/09 04:31:28;;;;;;;1.85;1.65;;;18.90;46.10;;;;;;4945661;28;20062;-60
2021/01/09 04:33:54;;;;;;;2.47;1.90;;;18.90;46.20;;;;;;4960657;28;20041;-59
2021/01/09 04:36:19;;;;;;;2.20;1.40;;;18.90;46.10;;;;;;4962662;28;20031;-60
2021/01/09 04:38:45;;;;;;;1.65;1.50;;;18.90;46.20;;;;;;4962478;28;20031;-59
2021/01/09 04:41:10;;;;;;;1.80;1.67;;;18.90;46.20;;;;;;4962247;28;20038;-60
2021/01/09 04:43:36;;;;;;;2.40;1.45;;;18.90;46.20;;;;;;4952638;28;20109;-59
2021/01/09 04:46:01;;;;;;;1.77;1.40;;;18.90;46.20;;;;;;4945126;28;20400;-59
2021/01/09 04:48:27;;;;;;;1.92;1.73;;;18.90;46.20;;;;;;4946805;28;20050;-59
2021/01/09 04:50:52;;;;;;;2.17;1.67;;;18.90;46.20;;;;;;4971496;28;20054;-59
2021/01/09 04:53:19;;;;;;;2.83;1.50;;;18.90;46.20;;;;;;4981855;28;20026;-59
2021/01/09 04:55:45;;;;;;;1.65;1.33;;;18.90;46.20;;;;;;4980733;28;20571;-58
2021/01/09 04:58:11;;;;;;;1.73;1.60;;;18.80;46.20;;;;;;4964081;28;20038;-59
2021/01/09 05:00:36;;;;;;;1.52;1.35;;;18.80;46.10;;;;;;4981822;28;20034;-59
2021/01/09 05:03:02;;;;;;;1.73;1.35;;;18.80;46.20;;;;;;4981283;28;20136;-59
2021/01/09 05:05:28;;;;;;;1.70;1.42;;;18.80;46.20;;;;;;4960159;28;20039;-60
2021/01/09 05:07:53;;;;;;;1.70;1.60;;;18.80;46.20;;;;;;4962757;28;20496;-60
2021/01/09 05:10:19;;;;;;;1.70;1.23;;;18.80;46.20;;;;;;4962388;28;20035;-59
2021/01/09 05:12:44;;;;;;;1.58;1.45;;;18.80;46.20;;;;;;4975799;28;20064;-59
2021/01/09 05:15:10;;;;;;;1.48;1.25;;;18.80;46.20;;;;;;4963649;28;20534;-59
2021/01/09 05:17:38;;;;;;;1.70;1.38;;;18.80;46.20;;;;;;4981291;28;20117;-60
2021/01/09 05:20:05;;;;;;;1.52;1.35;;;18.80;46.20;;;;;;4976141;28;20129;-60
2021/01/09 05:22:31;;;;;;;1.38;1.27;;;18.80;46.20;;;;;;4962475;28;20505;-60
2021/01/09 05:24:56;;;;;;;1.92;1.33;;;18.80;46.20;;;;;;4944271;28;20302;-62
2021/01/09 05:27:22;;;;;;;1.50;1.40;;;18.80;46.20;;;;;;4945075;28;20035;-59
2021/01/09 05:29:51;;;;;;;1.55;1.45;;;18.70;46.10;;;;;;4945861;28;20078;-58
2021/01/09 05:32:17;;;;;;;1.20;1.10;;;18.80;46.20;;;;;;4981562;28;20073;-60
2021/01/09 05:34:47;;;;;;;1.20;1.08;;;18.70;46.20;;;;;;4980779;28;20050;-59
2021/01/09 05:37:19;;;;;;;1.33;1.23;;;18.70;46.20;;;;;;4964300;28;20034;-59
2021/01/09 05:40:03;;;;;;;1.40;1.30;;;18.70;46.10;;;;;;4946589;28;20054;-60
2021/01/09 05:42:29;;;;;;;1.52;1.25;;;18.80;46.10;;;;;;4962421;28;20027;-59
2021/01/09 05:44:56;;;;;;;1.90;1.25;;;18.70;46.00;;;;;;4961227;28;20049;-59
2021/01/09 05:47:23;;;;;;;1.10;1.00;;;18.70;46.10;;;;;;4961946;28;20050;-59
2021/01/09 05:49:50;;;;;;;1.23;1.13;;;18.70;46.00;;;;;;4962788;28;20094;-59
2021/01/09 05:52:15;;;;;;;1.98;1.55;;;18.80;46.10;;;;;;4964344;28;20041;-59
2021/01/09 05:54:41;;;;;;;1.63;1.13;;;18.80;46.10;;;;;;4980998;28;20505;-59
2021/01/09 05:57:06;;;;;;;1.30;1.20;;;18.80;46.10;;;;;;4962475;28;20686;-60
2021/01/09 05:59:32;;;;;;;1.35;1.20;;;18.70;46.00;;;;;;4963574;28;20038;-59
2021/01/09 06:01:58;;;;;;;1.40;1.30;;;18.80;46.00;;;;;;4982596;28;20062;-59
2021/01/09 06:04:28;;;;;;;1.35;1.25;;;18.80;46.00;;;;;;4981657;28;20068;-60
2021/01/09 06:07:08;;;;;;;1.30;1.20;;;18.80;46.10;;;;;;4980424;28;20034;-58
2021/01/09 06:09:35;;;;;;;2.55;1.63;;;18.80;46.00;;;;;;4963374;28;20093;-59
2021/01/09 06:12:05;;;;;;;1.67;1.20;;;18.80;46.60;;;;;;4963759;28;20125;-59
2021/01/09 06:14:31;;;;;;;1.52;1.42;;;18.80;46.00;;;;;;4980330;28;20451;-62
2021/01/09 06:16:56;;;;;;;2.30;1.42;;;18.80;46.00;;;;;;4963957;28;20038;-59
2021/01/09 06:19:22;;;;;;;2.10;1.30;;;18.80;46.00;;;;;;4963616;28;20061;-60
2021/01/09 06:21:47;;;;;;;2.25;1.50;;;18.80;45.90;;;;;;4979997;28;20030;-60
2021/01/09 06:24:13;;;;;;;1.65;1.55;;;18.80;45.90;;;;;;4944474;28;20074;-59
2021/01/09 06:26:38;;;;;;;1.30;1.20;;;18.80;45.90;;;;;;4947677;28;20483;-59
2021/01/09 06:29:19;;;;;;;1.48;1.38;;;18.80;46.00;;;;;;4962023;28;20493;-60
2021/01/09 06:31:50;;;;;;;1.30;1.20;;;18.90;46.00;;;;;;4947478;28;20039;-60
2021/01/09 06:34:16;;;;;;;6.82;1.35;;;18.90;46.00;;;;;;4953701;28;20583;-59
2021/01/09 06:36:41;;;;;;;1.30;1.20;;;18.90;46.00;;;;;;4966706;28;20058;-58
2021/01/09 06:39:06;;;;;;;3.30;1.30;;;18.90;46.00;;;;;;4966919;28;20580;-60
2021/01/09 06:41:32;;;;;;;2.13;1.30;;;18.90;46.00;;;;;;4966819;28;20109;-64
2021/01/09 06:43:59;;;;;;;1.30;1.05;;;18.90;46.00;;;;;;4966437;28;20068;-61
2021/01/09 06:46:26;;;;;;;1.20;1.10;;;18.90;46.00;;;;;;4997904;23;20101;-55
2021/01/09 06:48:52;;;;;;;2.20;1.42;;;18.90;46.10;;;;;;5012344;28;20049;-52
2021/01/09 06:51:32;;;;;;;1.10;0.95;;;18.90;46.10;;;;;;4988137;28;20038;-55
2021/01/09 06:54:22;;;;;;;1.30;1.20;;;18.90;46.20;;;;;;5000883;28;20092;-55
2021/01/09 06:57:07;;;;;;;1.25;1.10;;;18.90;46.20;;;;;;4992998;28;20061;-56
2021/01/09 06:59:34;;;;;;;1.27;1.13;;;18.90;46.20;;;;;;4985802;28;20096;-53
2021/01/09 07:02:12;;;;;;;1.45;1.35;;;19.00;46.20;;;;;;4998873;28;20045;-56
2021/01/09 07:04:54;;;;;;;1.20;1.10;;;19.00;46.20;;;;;;4992944;28;20141;-54
2021/01/09 07:07:39;;;;;;;1.10;0.80;;;19.00;46.30;;;;;;4991552;28;20049;-57
2021/01/09 07:10:12;;;;;;;0.95;0.85;;;19.00;46.20;;;;;;5000614;28;20045;-63
2021/01/09 07:12:40;;;;;;;1.27;1.17;;;19.00;46.10;;;;;;4976182;28;20167;-55
2021/01/09 07:15:07;;;;;;;1.42;1.08;;;19.00;46.10;;;;;;4985629;28;20402;-56
2021/01/09 07:17:38;;;;;;;1.38;1.23;;;19.00;46.10;;;;;;4988782;28;20046;-53
2021/01/09 07:20:07;;;;;;;1.40;1.20;;;19.00;46.10;;;;;;4983604;28;20035;-54
2021/01/09 07:22:34;;;;;;;1.40;1.30;;;19.00;46.00;;;;;;4981520;28;20424;-52
2021/01/09 07:25:00;;;;;;;1.40;1.30;;;19.00;46.00;;;;;;4981667;28;20054;-57
2021/01/09 07:27:39;;;;;;;1.70;1.10;;;19.00;46.00;;;;;;4996381;28;20120;-54
2021/01/09 07:30:19;;;;;;;1.58;1.10;;;19.10;46.00;;;;;;4996524;28;20042;-53
2021/01/09 07:33:04;;;;;;;1.63;1.33;;;19.10;45.90;;;;;;4992272;28;20084;-56
2021/01/09 07:35:30;;;;;;;1.60;1.03;;;19.10;45.90;;;;;;4986036;28;20417;-54
2021/01/09 07:38:01;;;;;;;1.70;1.60;;;19.10;45.80;;;;;;4991166;28;20265;-57
2021/01/09 07:40:29;;;;;;;1.10;1.00;;;19.10;45.80;;;;;;4986840;28;20038;-57
2021/01/09 07:42:55;;;;;;;1.00;1.00;;;19.10;45.80;;;;;;4997878;28;20181;-55
2021/01/09 07:45:21;;;;;;;1.33;1.17;;;19.10;45.70;;;;;;4993311;28;20501;-57
2021/01/09 07:47:48;;;;;;;4.22;1.27;;;19.10;45.70;;;;;;5001724;28;20042;-56
2021/01/09 07:50:15;;;;;;;2.15;1.38;;;19.10;45.80;;;;;;4996813;28;20528;-55
2021/01/09 07:52:41;;;;;;;3.38;1.40;;;19.10;45.70;;;;;;4992234;28;20125;-57
2021/01/09 07:55:07;;;;;;;3.80;1.35;;;19.10;45.70;;;;;;5002889;28;20179;-55
2021/01/09 07:57:33;;;;;;;2.05;1.33;;;19.00;45.70;;;;;;4989683;28;20026;-55
2021/01/09 07:59:59;;;;;;;1.80;1.13;;;19.00;45.90;;;;;;4982952;28;20054;-56
2021/01/09 08:02:34;;;;;;;3.58;1.65;;;19.10;46.00;;;;;;4982485;28;20039;-58
2021/01/09 08:05:03;;;;;;;2.53;1.63;;;19.10;45.90;;;;;;5002067;28;20041;-58
2021/01/09 08:07:28;;;;;;;2.38;1.30;;;19.00;45.80;;;;;;5002134;28;20069;-55
2021/01/09 08:09:54;;;;;;;2.63;1.20;;;19.00;45.80;;;;;;5001150;28;20788;-57
2021/01/09 08:12:26;;;;;;;3.65;1.30;;;19.00;45.90;;;;;;5000739;28;20586;-59
2021/01/09 08:14:52;;;;;;;3.13;1.45;;;19.00;45.90;;;;;;4988484;28;20045;-57
2021/01/09 08:17:17;;;;;;;2.75;1.42;;;19.00;45.90;;;;;;4987939;28;20531;-57
2021/01/09 08:19:43;;;;;;;1.73;1.55;;;19.00;46.00;;;;;;5000480;28;20100;-58
2021/01/09 08:22:08;;;;;;;1.77;1.40;;;18.90;45.90;;;;;;5002535;28;20528;-55
2021/01/09 08:24:34;;;;;;;1.88;1.45;;;18.90;45.90;;;;;;4984106;28;20030;-56
2021/01/09 08:26:59;;;;;;;1.10;1.00;;;18.90;45.80;;;;;;5000927;28;20057;-57
2021/01/09 08:29:26;;;;;;;2.80;1.42;;;18.90;45.90;;;;;;4997528;28;20038;-56
2021/01/09 08:31:52;;;;;;;2.50;1.40;;;18.90;45.90;;;;;;4981588;28;20034;-52
2021/01/09 08:34:21;;;;;;;3.70;1.40;;;18.90;45.90;;;;;;4994776;28;20114;-57
2021/01/09 08:36:48;;;;;;;1.70;1.25;;;18.90;46.00;;;;;;4967171;28;20030;-55
2021/01/09 08:39:13;;;;;;;2.67;1.67;;;18.90;46.00;;;;;;4981539;28;20023;-56
2021/01/09 08:41:39;;;;;;;1.45;1.17;;;18.90;46.00;;;;;;4990197;28;20044;-54
2021/01/09 08:44:09;;;;;;;1.95;1.20;;;18.90;46.00;;;;;;4997142;28;20096;-55
2021/01/09 08:46:38;;;;;;;3.05;1.40;;;18.90;46.10;;;;;;4981541;28;20042;-54
2021/01/09 08:49:04;;;;;;;3.35;1.60;;;18.90;46.20;;;;;;4981295;28;20049;-56
2021/01/09 08:51:30;;;;;;;3.40;1.55;;;18.80;46.20;;;;;;4981542;28;20620;-55
2021/01/09 08:53:56;;;;;;;3.75;1.58;;;18.90;46.30;;;;;;4980394;28;20031;-53
2021/01/09 08:56:27;;;;;;;2.67;1.67;;;18.90;46.30;;;;;;4987860;28;20634;-54
2021/01/09 08:58:52;;;;;;;2.00;1.55;;;18.80;46.30;;;;;;4988281;28;20035;-56
2021/01/09 09:01:22;;;;;;;5.25;1.50;;;18.90;46.40;;;;;;4980943;28;20042;-52
2021/01/09 09:03:48;;;;;;;2.72;1.40;;;18.90;46.40;;;;;;4965036;28;20033;-56
2021/01/09 09:06:14;;;;;;;5.90;2.10;;;18.90;46.40;;;;;;4982630;28;20435;-57
2021/01/09 09:08:40;;;;;;;2.38;1.30;;;18.90;46.50;;;;;;4989784;28;20050;-56
2021/01/09 09:11:06;;;;;;;3.47;1.65;;;18.90;46.50;;;;;;4988001;28;20030;-55
2021/01/09 09:13:31;;;;;;;2.80;1.45;;;18.90;46.50;;;;;;4995701;28;20026;-56
2021/01/09 09:15:57;;;;;;;2.25;1.67;;;18.90;46.40;;;;;;4988395;28;20081;-54
2021/01/09 09:18:30;;;;;;;3.33;1.77;;;18.90;46.50;;;;;;4982602;28;20053;-53
2021/01/09 09:20:56;;;;;;;2.78;1.50;;;18.90;46.50;;;;;;4978858;28;20037;-55
2021/01/09 09:23:25;;;;;;;1.73;1.45;;;18.90;46.50;;;;;;4986869;28;20031;-55
2021/01/09 09:26:03;;;;;;;4.47;1.65;;;18.90;46.40;;;;;;4994933;28;20053;-56
2021/01/09 09:28:28;;;;;;;2.80;1.50;;;18.80;46.40;;;;;;5019661;28;20572;-55
2021/01/09 09:30:54;;;;;;;2.70;1.50;;;18.80;46.40;;;;;;4981391;28;20030;-53
2021/01/09 09:33:19;;;;;;;3.78;1.73;;;18.90;46.50;;;;;;5004785;28;20041;-58
2021/01/09 09:35:45;;;;;;;3.20;1.50;;;18.80;47.10;;;;;;4995945;28;20065;-55
2021/01/09 09:38:11;;;;;;;2.08;1.70;;;18.80;46.40;;;;;;4986682;28;20073;-55
2021/01/09 09:40:37;;;;;;;3.50;2.20;;;18.80;46.40;;;;;;4990721;28;20069;-54
2021/01/09 09:43:18;;;;;;;4.30;3.03;;;18.80;46.40;;;;;;4981028;28;20117;-55
2021/01/09 09:46:01;;;;;;;5.28;3.63;;;18.80;46.50;;;;;;4986751;28;20042;-58
2021/01/09 09:48:37;;;;;;;8.30;4.68;;;18.70;46.50;;;;;;4999432;28;20102;-54
2021/01/09 09:51:09;;;;;;;6.40;3.72;;;18.70;46.50;;;;;;5000484;28;20432;-56
2021/01/09 09:53:38;;;;;;;11.18;6.22;;;18.70;46.50;;;;;;5000540;28;20045;-54
2021/01/09 09:56:20;;;;;;;23.17;10.45;;;18.70;46.50;;;;;;4999844;28;21070;-54
2021/01/09 09:58:47;;;;;;;20.23;10.10;;;18.70;46.60;;;;;;5000484;28;20104;-57
2021/01/09 10:01:15;;;;;;;22.08;11.70;;;18.70;46.70;;;;;;4985082;28;20100;-56
2021/01/09 10:03:41;;;;;;;21.65;11.35;;;18.70;46.70;;;;;;4985155;28;20045;-58
2021/01/09 10:06:07;;;;;;;26.35;12.63;;;18.60;46.70;;;;;;4995673;28;20046;-58
2021/01/09 10:08:32;;;;;;;22.08;13.85;;;18.60;46.80;;;;;;5004462;28;20038;-55
2021/01/09 10:10:58;;;;;;;24.42;12.68;;;18.60;46.90;;;;;;5001904;28;20506;-55
2021/01/09 10:13:24;;;;;;;25.95;13.00;;;18.60;46.90;;;;;;4984481;28;20035;-55
2021/01/09 10:15:50;;;;;;;27.58;12.70;;;18.60;46.90;;;;;;4983860;28;20053;-56
2021/01/09 10:18:15;;;;;;;26.23;14.65;;;18.60;46.90;;;;;;4997490;28;20030;-56
2021/01/09 10:20:40;;;;;;;25.70;12.23;;;18.60;46.90;;;;;;4991913;28;20042;-56
2021/01/09 10:23:06;;;;;;;20.38;11.77;;;18.60;46.90;;;;;;5000835;28;20042;-54
2021/01/09 10:25:31;;;;;;;24.48;12.55;;;18.60;46.90;;;;;;4997231;28;20392;-52
2021/01/09 10:27:57;;;;;;;23.70;12.18;;;18.60;46.80;;;;;;4986266;28;20069;-53
2021/01/09 10:30:23;;;;;;;21.67;11.75;;;18.60;46.80;;;;;;5003687;28;20080;-55
2021/01/09 10:32:49;;;;;;;26.92;12.73;;;18.60;46.80;;;;;;5003604;28;20033;-52
2021/01/09 10:35:14;;;;;;;23.52;12.25;;;18.60;46.80;;;;;;4969635;28;20043;-53
2021/01/09 10:37:40;;;;;;;25.48;11.65;;;18.70;46.90;;;;;;5002184;28;20053;-52
2021/01/09 10:40:06;;;;;;;23.42;12.00;;;18.70;46.90;;;;;;5003771;28;20038;-55
2021/01/09 10:42:31;;;;;;;20.48;11.75;;;18.80;46.90;;;;;;4986283;28;20062;-55
2021/01/09 10:44:57;;;;;;;17.92;11.15;;;18.80;46.90;;;;;;4983348;28;20149;-55
2021/01/09 10:47:22;;;;;;;19.70;10.40;;;18.90;46.90;;;;;;4983139;28;20499;-55
2021/01/09 10:49:48;;;;;;;21.27;10.35;;;18.90;46.80;;;;;;4985015;28;20038;-56
2021/01/09 10:52:13;;;;;;;26.67;11.98;;;18.90;46.80;;;;;;4984858;28;20028;-54
2021/01/09 10:54:39;;;;;;;19.48;10.88;;;18.90;46.80;;;;;;4984836;28;20038;-53
2021/01/09 10:57:04;;;;;;;20.13;10.82;;;19.00;46.80;;;;;;4982904;28;20042;-53
2021/01/09 10:59:30;;;;;;;22.73;11.43;;;19.00;46.80;;;;;;4984720;28;20081;-53
2021/01/09 11:01:56;;;;;;;16.90;10.07;;;19.00;46.70;;;;;;4984921;28;20030;-56
2021/01/09 11:04:22;;;;;;;18.55;10.35;;;19.00;46.70;;;;;;4985717;28;20037;-56
2021/01/09 11:06:47;;;;;;;16.42;9.80;;;19.00;46.70;;;;;;4984571;28;20102;-56
2021/01/09 11:09:13;;;;;;;16.88;9.43;;;19.10;46.60;;;;;;4983592;28;20046;-52
2021/01/09 11:11:38;;;;;;;13.95;8.43;;;19.10;46.60;;;;;;4983976;28;20046;-54
2021/01/09 11:14:04;;;;;;;17.65;9.30;;;19.20;46.50;;;;;;4984323;28;20064;-54
2021/01/09 11:16:29;;;;;;;15.73;9.15;;;19.20;46.40;;;;;;4984373;28;20030;-54
2021/01/09 11:18:55;;;;;;;18.00;9.05;;;19.20;46.40;;;;;;4984484;28;20085;-58
2021/01/09 11:21:20;;;;;;;14.10;8.88;;;19.20;46.30;;;;;;4984617;28;20054;-53
2021/01/09 11:23:46;;;;;;;17.48;9.55;;;19.30;46.30;;;;;;4983846;28;20026;-57
2021/01/09 11:26:12;;;;;;;15.13;8.90;;;19.30;46.20;;;;;;4982671;28;20034;-55
2021/01/09 11:28:38;;;;;;;15.15;8.90;;;19.30;46.30;;;;;;4993560;28;20626;-53
2021/01/09 11:31:04;;;;;;;18.27;9.75;;;19.30;46.30;;;;;;4982785;28;20096;-54
2021/01/09 11:33:29;;;;;;;14.98;8.65;;;19.30;46.40;;;;;;4964857;28;20112;-55
2021/01/09 11:35:55;;;;;;;12.77;8.30;;;19.30;46.50;;;;;;4983889;28;20443;-54
2021/01/09 11:38:21;;;;;;;16.85;9.15;;;19.20;46.50;;;;;;4983950;28;20038;-56
2021/01/09 11:40:47;;;;;;;21.10;8.80;;;19.20;46.60;;;;;;4984231;28;20139;-53
2021/01/09 11:43:12;;;;;;;17.52;8.90;;;19.20;46.60;;;;;;4984084;28;20045;-53
2021/01/09 11:45:38;;;;;;;15.63;8.40;;;19.10;46.70;;;;;;4983947;28;20051;-53
2021/01/09 11:48:05;;;;;;;14.80;8.30;;;19.10;46.80;;;;;;4965877;28;20026;-55
2021/01/09 11:50:31;;;;;;;16.38;8.23;;;19.00;46.80;;;;;;4966009;28;20591;-53
2021/01/09 11:52:56;;;;;;;17.25;8.50;;;19.10;46.90;;;;;;4967222;28;20057;-54
2021/01/09 11:55:22;;;;;;;17.45;7.82;;;19.10;47.00;;;;;;4982197;28;20034;-56
2021/01/09 11:57:47;;;;;;;16.65;8.10;;;19.10;46.90;;;;;;4982168;28;20049;-52
2021/01/09 12:00:13;;;;;;;15.80;8.27;;;19.10;46.90;;;;;;4983520;28;20113;-54
2021/01/09 12:02:39;;;;;;;17.55;7.90;;;19.10;46.80;;;;;;4988056;28;20026;-54
2021/01/09 12:05:06;;;;;;;18.77;7.82;;;19.10;46.80;;;;;;5001578;28;20045;-57
2021/01/09 12:07:31;;;;;;;13.90;8.02;;;19.10;46.80;;;;;;4993829;28;20033;-55
2021/01/09 12:09:57;;;;;;;14.32;6.40;;;19.10;46.90;;;;;;5001086;28;20030;-54
2021/01/09 12:12:22;;;;;;;14.15;7.13;;;19.10;46.80;;;;;;4983499;28;20123;-56
2021/01/09 12:14:48;;;;;;;14.05;7.40;;;19.10;46.80;;;;;;4983304;28;20074;-52
2021/01/09 12:17:13;;;;;;;17.95;7.45;;;19.10;46.90;;;;;;4982616;28;20089;-56
2021/01/09 12:19:39;;;;;;;13.63;6.30;;;19.10;46.80;;;;;;4982833;28;20527;-54
2021/01/09 12:22:04;;;;;;;16.85;6.35;;;19.10;46.80;;;;;;4981373;28;20038;-58
2021/01/09 12:24:30;;;;;;;15.52;7.15;;;19.10;46.80;;;;;;4990006;28;20137;-53
2021/01/09 12:26:55;;;;;;;13.23;5.53;;;19.10;47.40;;;;;;5002782;28;20404;-57
2021/01/09 12:29:21;;;;;;;13.88;7.97;;;19.10;46.80;;;;;;4989274;28;20563;-59
2021/01/09 12:31:47;;;;;;;16.00;9.40;;;19.10;46.80;;;;;;4984038;28;20038;-57
2021/01/09 12:34:13;;;;;;;15.05;10.25;;;19.10;46.80;;;;;;5001977;28;20034;-56
2021/01/09 12:36:39;;;;;;;13.75;9.60;;;19.10;46.80;;;;;;4992979;28;20125;-54
2021/01/09 12:39:05;;;;;;;12.18;9.95;;;19.10;46.80;;;;;;4982105;28;20142;-52
2021/01/09 12:41:34;;;;;;;11.38;10.07;;;19.10;46.80;;;;;;4983216;28;20049;-54